Sea Success — VRS4325 — position and weather

sailwx.info

Track history (hours):
 
Tides and Currents Weather Stations Pressure Air Temp Water Temp Dewpoint Dewpoint Depression Visibility Wind Speed Wind Dir Waves Ship Positions

Sea Success

Last reported at 2015-Mar-03 23:33 UTC. Time now 2015-Mar-04 00:17 UTC.
Position N 22°17' E 114°10'.

Length 27 m.

Type: High speed craft. MMSI: 477995071.

Date/timePositionNaut miles runAvg speedWind from/ knotsBaromVisibWave heightAir tempDewpointWater temp
2015-Mar-03 23:33N 22°17' E 114°10'2 1.7
2015-Mar-03 22:34N 22°18' E 114°08'3 0.3
2015-Mar-03 13:33N 22°17' E 114°05'2 1.8
2015-Mar-03 12:15N 22°17' E 114°02'710.2
2015-Mar-03 11:34N 22°17' E 114°10'6 4.8
2015-Mar-03 10:22N 22°17' E 114°03'1 1.0
2015-Mar-03 09:10N 22°17' E 114°02'711.1
2015-Mar-03 08:33N 22°17' E 114°10'7 3.3
2015-Mar-03 06:19N 22°16' E 114°02'7 9.5
2015-Mar-03 05:34N 22°17' E 114°09'1 0.8
2015-Mar-03 04:33N 22°18' E 114°09'0 0.0
2015-Mar-03 03:33N 22°18' E 114°09'0 0.0
2015-Mar-03 02:33N 22°18' E 114°09'1 0.7
2015-Mar-03 01:33N 22°19' E 114°09'5 5.3
2015-Mar-03 00:32N 22°17' E 114°04'5 5.4
2015-Mar-02 23:33N 22°17' E 114°10'4 4.4
2015-Mar-02 22:33N 22°17' E 114°05'0 0.1
2015-Mar-02 13:32N 22°17' E 114°04'2 2.0
2015-Mar-02 12:33N 22°17' E 114°02'7 6.9
2015-Mar-02 11:33N 22°17' E 114°10'7 6.0
2015-Mar-02 10:25N 22°17' E 114°02'7 7.8
2015-Mar-02 09:33N 22°19' E 114°09'0 0.4
2015-Mar-02 08:33N 22°18' E 114°09'7 3.0
2015-Mar-02 06:19N 22°17' E 114°02'7 9.2
2015-Mar-02 05:33N 22°17' E 114°10'0 0.0
2015-Mar-02 02:33N 22°17' E 114°10'6 4.9
2015-Mar-02 01:17N 22°16' E 114°03'1 1.0
2015-Mar-02 00:30N 22°17' E 114°04'6 5.9
2015-Mar-01 23:33N 22°17' E 114°10'7 6.4
2015-Mar-01 22:29N 22°17' E 114°02'5 0.6
2015-Mar-01 13:34N 22°18' E 114°08'2 1.9
2015-Mar-01 12:33N 22°17' E 114°06'4 3.5
2015-Mar-01 11:24N 22°16' E 114°02'7 8.9
2015-Mar-01 10:33N 22°17' E 114°10'7 7.0
2015-Mar-01 09:33N 22°17' E 114°02'7 7.0
2015-Mar-01 08:34N 22°17' E 114°09'0 0.0
2015-Mar-01 07:33N 22°17' E 114°09'0 0.0
2015-Mar-01 06:33N 22°17' E 114°09'0 0.0
2015-Mar-01 05:33N 22°17' E 114°09'7 6.9
2015-Mar-01 04:33N 22°17' E 114°02'6 6.2
2015-Mar-01 03:34N 22°18' E 114°09'2 2.1
2015-Mar-01 02:33N 22°17' E 114°06'3 2.9
2015-Mar-01 01:34N 22°17' E 114°09'0 0.0
2015-Mar-01 00:33N 22°17' E 114°09'2 2.3
2015-Feb-28 23:33N 22°20' E 114°09'5 0.5
2015-Feb-28 13:33N 22°17' E 114°05'3 2.3
2015-Feb-28 12:12N 22°16' E 114°02'711.5
2015-Feb-28 11:33N 22°17' E 114°10'7 7.0
2015-Feb-28 10:33N 22°17' E 114°02'1 1.1
2015-Feb-28 09:33N 22°17' E 114°03'6 6.1
2015-Feb-28 08:33N 22°17' E 114°10'7 3.3
2015-Feb-28 06:20N 22°16' E 114°02'7 9.5
2015-Feb-28 05:33N 22°17' E 114°10'7 2.9
2015-Feb-28 03:09N 22°17' E 114°02'711.5
2015-Feb-28 02:33N 22°17' E 114°10'3 2.1
2015-Feb-28 01:13N 22°17' E 114°07'3 1.7
2015-Feb-27 23:33N 22°17' E 114°10'6 5.4
2015-Feb-27 22:32N 22°17' E 114°04'2 0.2
2015-Feb-27 13:32N 22°17' E 114°05'4 2.0
2015-Feb-27 11:33N 22°17' E 114°10'7 6.0
2015-Feb-27 10:24N 22°17' E 114°02'7 7.7
2015-Feb-27 09:33N 22°18' E 114°09'0 0.3
2015-Feb-27 08:33N 22°18' E 114°09'0 0.2
2015-Feb-27 05:33N 22°17' E 114°10'7 3.3
2015-Feb-27 03:21N 22°16' E 114°02'7 9.4
2015-Feb-27 02:33N 22°17' E 114°10'3 2.4
2015-Feb-27 01:11N 22°17' E 114°06'1 2.2
2015-Feb-27 00:34N 22°17' E 114°05'5 4.6
2015-Feb-26 23:34N 22°17' E 114°10'4 3.7
2015-Feb-26 22:33N 22°17' E 114°06'1 0.1
2015-Feb-26 13:30N 22°17' E 114°06'3 1.5
2015-Feb-26 11:33N 22°17' E 114°10'4 3.0
2015-Feb-26 10:17N 22°17' E 114°06'3 2.7
2015-Feb-26 09:11N 22°17' E 114°02'711.0
2015-Feb-26 08:33N 22°17' E 114°10'0 0.2
2015-Feb-26 07:33N 22°17' E 114°09'0 0.0
2015-Feb-26 06:34N 22°17' E 114°09'0 0.1
2015-Feb-26 05:33N 22°17' E 114°10'7 3.1
2015-Feb-26 03:18N 22°17' E 114°02'7 9.4
2015-Feb-26 02:33N 22°17' E 114°10'7 6.7
2015-Feb-26 01:28N 22°16' E 114°02'2 2.2
2015-Feb-26 00:33N 22°17' E 114°04'5 5.5
2015-Feb-25 23:34N 22°17' E 114°10'4 4.1
2015-Feb-25 22:33N 22°17' E 114°05'1 0.1
2015-Feb-25 13:33N 22°17' E 114°04'2 1.7
2015-Feb-25 12:05N 22°16' E 114°02'714.0
2015-Feb-25 11:33N 22°17' E 114°09'7 5.7
2015-Feb-25 10:22N 22°17' E 114°02'7 3.8
2015-Feb-25 08:33N 22°17' E 114°10'0 0.2
2015-Feb-25 07:33N 22°17' E 114°09'0 0.0
2015-Feb-25 06:33N 22°17' E 114°09'1 1.0
2015-Feb-25 05:34N 22°18' E 114°09'1 0.4
2015-Feb-25 02:33N 22°17' E 114°10'3 2.1
2015-Feb-25 01:11N 22°17' E 114°06'2 3.4
2015-Feb-25 00:34N 22°17' E 114°04'5 5.0
2015-Feb-24 23:33N 22°17' E 114°10'4 4.1
2015-Feb-24 22:33N 22°17' E 114°05'0 0.1
2015-Feb-24 13:31N 22°17' E 114°06'4 2.7
2015-Feb-24 12:06N 22°16' E 114°02'713.7
2015-Feb-24 11:33N 22°17' E 114°10'5 4.2
2015-Feb-24 10:20N 22°17' E 114°04'0 0.1
2015-Feb-24 09:06N 22°17' E 114°04'5 9.6
2015-Feb-24 08:33N 22°17' E 114°10'1 0.8
2015-Feb-24 07:33N 22°18' E 114°09'0 0.0
2015-Feb-24 06:33N 22°18' E 114°09'1 0.7
2015-Feb-24 05:33N 22°18' E 114°09'7 3.2
2015-Feb-24 03:19N 22°16' E 114°02'7 9.5
2015-Feb-24 02:33N 22°17' E 114°10'3 2.0
2015-Feb-24 01:13N 22°17' E 114°07'3 4.4
2015-Feb-24 00:33N 22°17' E 114°04'6 5.6
2015-Feb-23 23:33N 22°17' E 114°10'7 7.0
2015-Feb-23 22:33N 22°17' E 114°02'3 0.3
2015-Feb-23 13:33N 22°17' E 114°05'3 2.0
2015-Feb-23 12:14N 22°17' E 114°02'710.3
2015-Feb-23 11:34N 22°17' E 114°09'7 7.0
2015-Feb-23 10:33N 22°17' E 114°02'1 1.0
2015-Feb-23 09:32N 22°16' E 114°03'6 6.3
2015-Feb-23 08:33N 22°17' E 114°10'0 0.2
2015-Feb-23 07:33N 22°17' E 114°09'0 0.0
2015-Feb-23 06:33N 22°17' E 114°09'0 0.4
2015-Feb-23 05:33N 22°18' E 114°09'7 3.1
2015-Feb-23 03:19N 22°17' E 114°02'7 9.5
2015-Feb-23 02:33N 22°17' E 114°10'4 3.1
2015-Feb-23 01:13N 22°17' E 114°05'1 2.1
2015-Feb-23 00:31N 22°17' E 114°04'6 5.9
2015-Feb-22 23:33N 22°17' E 114°10'5 4.9
2015-Feb-22 22:33N 22°17' E 114°04'2 0.2
2015-Feb-22 14:05N 22°17' E 114°02'510.2
2015-Feb-22 13:33N 22°17' E 114°08'1 0.9
2015-Feb-22 12:34N 22°18' E 114°07'5 4.2
2015-Feb-22 11:25N 22°16' E 114°02'7 8.3
2015-Feb-22 10:33N 22°17' E 114°10'7 6.1
2015-Feb-22 09:25N 22°17' E 114°02'7 7.8
2015-Feb-22 08:33N 22°17' E 114°09'0 0.0
2015-Feb-22 07:33N 22°17' E 114°09'7 6.5
2015-Feb-22 06:26N 22°16' E 114°02'7 8.5
2015-Feb-22 05:33N 22°17' E 114°10'7 6.3
2015-Feb-22 04:29N 22°17' E 114°02'6 6.9
2015-Feb-22 03:34N 22°18' E 114°09'2 2.4
2015-Feb-22 02:33N 22°18' E 114°06'3 2.9
2015-Feb-22 01:33N 22°18' E 114°09'0 0.0
2015-Feb-22 00:34N 22°18' E 114°09'  
Track history (hours):
 
Tides and Currents Weather Stations Pressure Air Temp Water Temp Dewpoint Dewpoint Depression Visibility Wind Speed Wind Dir Waves Ship Positions

Sea Success

Last reported at 2015-Mar-03 23:33 UTC. Time now 2015-Mar-04 00:17 UTC.
Position N 22°17' E 114°10'.

Length 27 m.

Type: High speed craft. MMSI: 477995071.

Date/timePositionNaut miles runAvg speedWind from/ knotsBaromVisibWave heightAir tempDewpointWater temp
2015-Mar-03 23:33N 22°17' E 114°10'2 1.7
2015-Mar-03 22:34N 22°18' E 114°08'3 0.3
2015-Mar-03 13:33N 22°17' E 114°05'2 1.8
2015-Mar-03 12:15N 22°17' E 114°02'710.2
2015-Mar-03 11:34N 22°17' E 114°10'6 4.8
2015-Mar-03 10:22N 22°17' E 114°03'1 1.0
2015-Mar-03 09:10N 22°17' E 114°02'711.1
2015-Mar-03 08:33N 22°17' E 114°10'7 3.3
2015-Mar-03 06:19N 22°16' E 114°02'7 9.5
2015-Mar-03 05:34N 22°17' E 114°09'1 0.8
2015-Mar-03 04:33N 22°18' E 114°09'0 0.0
2015-Mar-03 03:33N 22°18' E 114°09'0 0.0
2015-Mar-03 02:33N 22°18' E 114°09'1 0.7
2015-Mar-03 01:33N 22°19' E 114°09'5 5.3
2015-Mar-03 00:32N 22°17' E 114°04'5 5.4
2015-Mar-02 23:33N 22°17' E 114°10'4 4.4
2015-Mar-02 22:33N 22°17' E 114°05'0 0.1
2015-Mar-02 13:32N 22°17' E 114°04'2 2.0
2015-Mar-02 12:33N 22°17' E 114°02'7 6.9
2015-Mar-02 11:33N 22°17' E 114°10'7 6.0
2015-Mar-02 10:25N 22°17' E 114°02'7 7.8
2015-Mar-02 09:33N 22°19' E 114°09'0 0.4
2015-Mar-02 08:33N 22°18' E 114°09'7 3.0
2015-Mar-02 06:19N 22°17' E 114°02'7 9.2
2015-Mar-02 05:33N 22°17' E 114°10'0 0.0
2015-Mar-02 02:33N 22°17' E 114°10'6 4.9
2015-Mar-02 01:17N 22°16' E 114°03'1 1.0
2015-Mar-02 00:30N 22°17' E 114°04'6 5.9
2015-Mar-01 23:33N 22°17' E 114°10'7 6.4
2015-Mar-01 22:29N 22°17' E 114°02'5 0.6
2015-Mar-01 13:34N 22°18' E 114°08'2 1.9
2015-Mar-01 12:33N 22°17' E 114°06'4 3.5
2015-Mar-01 11:24N 22°16' E 114°02'7 8.9
2015-Mar-01 10:33N 22°17' E 114°10'7 7.0
2015-Mar-01 09:33N 22°17' E 114°02'7 7.0
2015-Mar-01 08:34N 22°17' E 114°09'0 0.0
2015-Mar-01 07:33N 22°17' E 114°09'0 0.0
2015-Mar-01 06:33N 22°17' E 114°09'0 0.0
2015-Mar-01 05:33N 22°17' E 114°09'7 6.9
2015-Mar-01 04:33N 22°17' E 114°02'6 6.2
2015-Mar-01 03:34N 22°18' E 114°09'2 2.1
2015-Mar-01 02:33N 22°17' E 114°06'3 2.9
2015-Mar-01 01:34N 22°17' E 114°09'0 0.0
2015-Mar-01 00:33N 22°17' E 114°09'2 2.3
2015-Feb-28 23:33N 22°20' E 114°09'5 0.5
2015-Feb-28 13:33N 22°17' E 114°05'3 2.3
2015-Feb-28 12:12N 22°16' E 114°02'711.5
2015-Feb-28 11:33N 22°17' E 114°10'7 7.0
2015-Feb-28 10:33N 22°17' E 114°02'1 1.1
2015-Feb-28 09:33N 22°17' E 114°03'6 6.1
2015-Feb-28 08:33N 22°17' E 114°10'7 3.3
2015-Feb-28 06:20N 22°16' E 114°02'7 9.5
2015-Feb-28 05:33N 22°17' E 114°10'7 2.9
2015-Feb-28 03:09N 22°17' E 114°02'711.5
2015-Feb-28 02:33N 22°17' E 114°10'3 2.1
2015-Feb-28 01:13N 22°17' E 114°07'3 1.7
2015-Feb-27 23:33N 22°17' E 114°10'6 5.4
2015-Feb-27 22:32N 22°17' E 114°04'2 0.2
2015-Feb-27 13:32N 22°17' E 114°05'4 2.0
2015-Feb-27 11:33N 22°17' E 114°10'7 6.0
2015-Feb-27 10:24N 22°17' E 114°02'7 7.7
2015-Feb-27 09:33N 22°18' E 114°09'0 0.3
2015-Feb-27 08:33N 22°18' E 114°09'0 0.2
2015-Feb-27 05:33N 22°17' E 114°10'7 3.3
2015-Feb-27 03:21N 22°16' E 114°02'7 9.4
2015-Feb-27 02:33N 22°17' E 114°10'3 2.4
2015-Feb-27 01:11N 22°17' E 114°06'1 2.2
2015-Feb-27 00:34N 22°17' E 114°05'5 4.6
2015-Feb-26 23:34N 22°17' E 114°10'4 3.7
2015-Feb-26 22:33N 22°17' E 114°06'1 0.1
2015-Feb-26 13:30N 22°17' E 114°06'3 1.5
2015-Feb-26 11:33N 22°17' E 114°10'4 3.0
2015-Feb-26 10:17N 22°17' E 114°06'3 2.7
2015-Feb-26 09:11N 22°17' E 114°02'711.0
2015-Feb-26 08:33N 22°17' E 114°10'0 0.2
2015-Feb-26 07:33N 22°17' E 114°09'0 0.0
2015-Feb-26 06:34N 22°17' E 114°09'0 0.1
2015-Feb-26 05:33N 22°17' E 114°10'7 3.1
2015-Feb-26 03:18N 22°17' E 114°02'7 9.4
2015-Feb-26 02:33N 22°17' E 114°10'7 6.7
2015-Feb-26 01:28N 22°16' E 114°02'2 2.2
2015-Feb-26 00:33N 22°17' E 114°04'5 5.5
2015-Feb-25 23:34N 22°17' E 114°10'4 4.1
2015-Feb-25 22:33N 22°17' E 114°05'1 0.1
2015-Feb-25 13:33N 22°17' E 114°04'2 1.7
2015-Feb-25 12:05N 22°16' E 114°02'714.0
2015-Feb-25 11:33N 22°17' E 114°09'7 5.7
2015-Feb-25 10:22N 22°17' E 114°02'7 3.8
2015-Feb-25 08:33N 22°17' E 114°10'0 0.2
2015-Feb-25 07:33N 22°17' E 114°09'0 0.0
2015-Feb-25 06:33N 22°17' E 114°09'1 1.0
2015-Feb-25 05:34N 22°18' E 114°09'1 0.4
2015-Feb-25 02:33N 22°17' E 114°10'3 2.1
2015-Feb-25 01:11N 22°17' E 114°06'2 3.4
2015-Feb-25 00:34N 22°17' E 114°04'5 5.0
2015-Feb-24 23:33N 22°17' E 114°10'4 4.1
2015-Feb-24 22:33N 22°17' E 114°05'0 0.1
2015-Feb-24 13:31N 22°17' E 114°06'4 2.7
2015-Feb-24 12:06N 22°16' E 114°02'713.7
2015-Feb-24 11:33N 22°17' E 114°10'5 4.2
2015-Feb-24 10:20N 22°17' E 114°04'0 0.1
2015-Feb-24 09:06N 22°17' E 114°04'5 9.6
2015-Feb-24 08:33N 22°17' E 114°10'1 0.8
2015-Feb-24 07:33N 22°18' E 114°09'0 0.0
2015-Feb-24 06:33N 22°18' E 114°09'1 0.7
2015-Feb-24 05:33N 22°18' E 114°09'7 3.2
2015-Feb-24 03:19N 22°16' E 114°02'7 9.5
2015-Feb-24 02:33N 22°17' E 114°10'3 2.0
2015-Feb-24 01:13N 22°17' E 114°07'3 4.4
2015-Feb-24 00:33N 22°17' E 114°04'6 5.6
2015-Feb-23 23:33N 22°17' E 114°10'7 7.0
2015-Feb-23 22:33N 22°17' E 114°02'3 0.3
2015-Feb-23 13:33N 22°17' E 114°05'3 2.0
2015-Feb-23 12:14N 22°17' E 114°02'710.3
2015-Feb-23 11:34N 22°17' E 114°09'7 7.0
2015-Feb-23 10:33N 22°17' E 114°02'1 1.0
2015-Feb-23 09:32N 22°16' E 114°03'6 6.3
2015-Feb-23 08:33N 22°17' E 114°10'0 0.2
2015-Feb-23 07:33N 22°17' E 114°09'0 0.0
2015-Feb-23 06:33N 22°17' E 114°09'0 0.4
2015-Feb-23 05:33N 22°18' E 114°09'7 3.1
2015-Feb-23 03:19N 22°17' E 114°02'7 9.5
2015-Feb-23 02:33N 22°17' E 114°10'4 3.1
2015-Feb-23 01:13N 22°17' E 114°05'1 2.1
2015-Feb-23 00:31N 22°17' E 114°04'6 5.9
2015-Feb-22 23:33N 22°17' E 114°10'5 4.9
2015-Feb-22 22:33N 22°17' E 114°04'2 0.2
2015-Feb-22 14:05N 22°17' E 114°02'510.2
2015-Feb-22 13:33N 22°17' E 114°08'1 0.9
2015-Feb-22 12:34N 22°18' E 114°07'5 4.2
2015-Feb-22 11:25N 22°16' E 114°02'7 8.3
2015-Feb-22 10:33N 22°17' E 114°10'7 6.1
2015-Feb-22 09:25N 22°17' E 114°02'7 7.8
2015-Feb-22 08:33N 22°17' E 114°09'0 0.0
2015-Feb-22 07:33N 22°17' E 114°09'7 6.5
2015-Feb-22 06:26N 22°16' E 114°02'7 8.5
2015-Feb-22 05:33N 22°17' E 114°10'7 6.3
2015-Feb-22 04:29N 22°17' E 114°02'6 6.9
2015-Feb-22 03:34N 22°18' E 114°09'2 2.4
2015-Feb-22 02:33N 22°18' E 114°06'3 2.9
2015-Feb-22 01:33N 22°18' E 114°09'0 0.0
2015-Feb-22 00:34N 22°18' E 114°09'  

Dump ship's entire track history